sensor_id;sensor_type;location;lat;lon;timestamp;temperature;humidity
68235;DHT22;55052;52.056;5.296;2022-11-20T00:00:30;-1.00;78.60
68235;DHT22;55052;52.056;5.296;2022-11-20T00:02:57;-1.10;78.50
68235;DHT22;55052;52.056;5.296;2022-11-20T00:05:24;-1.10;78.50
68235;DHT22;55052;52.056;5.296;2022-11-20T00:07:51;-1.20;78.50
68235;DHT22;55052;52.056;5.296;2022-11-20T00:10:17;-1.20;78.50
68235;DHT22;55052;52.056;5.296;2022-11-20T00:12:44;-1.20;78.50
68235;DHT22;55052;52.056;5.296;2022-11-20T00:15:11;-1.30;79.30
68235;DHT22;55052;52.056;5.296;2022-11-20T00:17:38;-1.30;78.50
68235;DHT22;55052;52.056;5.296;2022-11-20T00:20:05;-1.30;78.60
68235;DHT22;55052;52.056;5.296;2022-11-20T00:22:31;-1.40;78.60
68235;DHT22;55052;52.056;5.296;2022-11-20T00:24:58;-1.40;78.60
68235;DHT22;55052;52.056;5.296;2022-11-20T00:27:25;-1.50;78.70
68235;DHT22;55052;52.056;5.296;2022-11-20T00:29:52;-1.40;78.80
68235;DHT22;55052;52.056;5.296;2022-11-20T00:32:18;-1.50;78.80
68235;DHT22;55052;52.056;5.296;2022-11-20T00:34:45;-1.40;79.00
68235;DHT22;55052;52.056;5.296;2022-11-20T00:37:12;-1.50;79.00
68235;DHT22;55052;52.056;5.296;2022-11-20T00:39:38;-1.50;78.90
68235;DHT22;55052;52.056;5.296;2022-11-20T00:42:05;-1.50;78.90
68235;DHT22;55052;52.056;5.296;2022-11-20T00:44:32;-1.50;79.00
68235;DHT22;55052;52.056;5.296;2022-11-20T00:46:58;-1.50;79.00
68235;DHT22;55052;52.056;5.296;2022-11-20T00:49:25;-1.50;79.00
68235;DHT22;55052;52.056;5.296;2022-11-20T00:51:52;-1.60;79.00
68235;DHT22;55052;52.056;5.296;2022-11-20T00:54:19;-1.60;79.00
68235;DHT22;55052;52.056;5.296;2022-11-20T00:56:45;-1.60;79.00
68235;DHT22;55052;52.056;5.296;2022-11-20T00:59:12;-1.60;78.90
68235;DHT22;55052;52.056;5.296;2022-11-20T01:01:39;-1.60;78.90
68235;DHT22;55052;52.056;5.296;2022-11-20T01:04:06;-1.70;78.80
68235;DHT22;55052;52.056;5.296;2022-11-20T01:06:35;-1.70;78.80
68235;DHT22;55052;52.056;5.296;2022-11-20T01:09:10;-1.80;78.70
68235;DHT22;55052;52.056;5.296;2022-11-20T01:11:40;-1.80;78.80
68235;DHT22;55052;52.056;5.296;2022-11-20T01:14:11;-1.80;78.80
68235;DHT22;55052;52.056;5.296;2022-11-20T01:16:49;-1.80;78.80
68235;DHT22;55052;52.056;5.296;2022-11-20T01:19:21;-1.90;78.80
68235;DHT22;55052;52.056;5.296;2022-11-20T01:21:50;-1.90;78.90
68235;DHT22;55052;52.056;5.296;2022-11-20T01:24:19;-1.90;78.90
68235;DHT22;55052;52.056;5.296;2022-11-20T01:26:48;-1.90;79.00
68235;DHT22;55052;52.056;5.296;2022-11-20T01:29:17;-2.00;79.10
68235;DHT22;55052;52.056;5.296;2022-11-20T01:31:45;-2.00;79.20
68235;DHT22;55052;52.056;5.296;2022-11-20T01:34:15;-2.00;79.20
68235;DHT22;55052;52.056;5.296;2022-11-20T01:36:42;-2.00;79.20
68235;DHT22;55052;52.056;5.296;2022-11-20T01:39:16;-2.00;79.30
68235;DHT22;55052;52.056;5.296;2022-11-20T01:41:43;-2.00;79.30
68235;DHT22;55052;52.056;5.296;2022-11-20T01:44:50;-2.00;79.40
68235;DHT22;55052;52.056;5.296;2022-11-20T01:49:56;-2.00;79.30
68235;DHT22;55052;52.056;5.296;2022-11-20T01:52:33;-2.10;79.30
68235;DHT22;55052;52.056;5.296;2022-11-20T01:55:08;-2.10;79.30
68235;DHT22;55052;52.056;5.296;2022-11-20T01:57:35;-2.10;79.40
68235;DHT22;55052;52.056;5.296;2022-11-20T02:00:07;-2.10;79.40
68235;DHT22;55052;52.056;5.296;2022-11-20T02:02:35;-2.10;79.50
68235;DHT22;55052;52.056;5.296;2022-11-20T02:07:49;-2.10;79.60
68235;DHT22;55052;52.056;5.296;2022-11-20T02:10:17;-2.10;79.50
68235;DHT22;55052;52.056;5.296;2022-11-20T02:12:44;-2.10;79.50
68235;DHT22;55052;52.056;5.296;2022-11-20T02:15:29;-2.20;79.60
68235;DHT22;55052;52.056;5.296;2022-11-20T02:17:57;-2.20;79.50
68235;DHT22;55052;52.056;5.296;2022-11-20T02:20:23;-2.20;79.50
68235;DHT22;55052;52.056;5.296;2022-11-20T02:23:05;-2.20;79.40
68235;DHT22;55052;52.056;5.296;2022-11-20T02:25:35;-2.20;79.30
68235;DHT22;55052;52.056;5.296;2022-11-20T02:28:04;-2.20;79.20
68235;DHT22;55052;52.056;5.296;2022-11-20T02:30:31;-2.30;79.20
68235;DHT22;55052;52.056;5.296;2022-11-20T02:32:58;-2.30;79.20
68235;DHT22;55052;52.056;5.296;2022-11-20T02:37:55;-2.30;79.10
68235;DHT22;55052;52.056;5.296;2022-11-20T02:40:23;-2.40;79.10
68235;DHT22;55052;52.056;5.296;2022-11-20T02:42:54;-2.40;79.00
68235;DHT22;55052;52.056;5.296;2022-11-20T02:45:21;-2.40;79.00
68235;DHT22;55052;52.056;5.296;2022-11-20T02:47:49;-2.40;79.00
68235;DHT22;55052;52.056;5.296;2022-11-20T02:50:16;-2.50;79.00
68235;DHT22;55052;52.056;5.296;2022-11-20T02:52:44;-2.50;79.00
68235;DHT22;55052;52.056;5.296;2022-11-20T02:55:11;-2.50;79.00
68235;DHT22;55052;52.056;5.296;2022-11-20T02:57:37;-2.60;79.00
68235;DHT22;55052;52.056;5.296;2022-11-20T03:00:05;-2.60;79.10
68235;DHT22;55052;52.056;5.296;2022-11-20T03:02:33;-2.60;79.20
68235;DHT22;55052;52.056;5.296;2022-11-20T03:05:00;-2.60;79.30
68235;DHT22;55052;52.056;5.296;2022-11-20T03:07:27;-2.60;79.40
68235;DHT22;55052;52.056;5.296;2022-11-20T03:09:53;-2.60;79.30
68235;DHT22;55052;52.056;5.296;2022-11-20T03:12:20;-2.60;79.40
68235;DHT22;55052;52.056;5.296;2022-11-20T03:14:47;-2.60;79.50
68235;DHT22;55052;52.056;5.296;2022-11-20T03:17:18;-2.60;79.40
68235;DHT22;55052;52.056;5.296;2022-11-20T03:19:45;-2.60;79.60
68235;DHT22;55052;52.056;5.296;2022-11-20T03:22:12;-2.60;79.60
68235;DHT22;55052;52.056;5.296;2022-11-20T03:24:38;-2.60;79.70
68235;DHT22;55052;52.056;5.296;2022-11-20T03:27:05;-2.60;79.60
68235;DHT22;55052;52.056;5.296;2022-11-20T03:29:32;-2.60;79.60
68235;DHT22;55052;52.056;5.296;2022-11-20T03:31:59;-2.60;79.70
68235;DHT22;55052;52.056;5.296;2022-11-20T03:34:25;-2.60;79.70
68235;DHT22;55052;52.056;5.296;2022-11-20T03:36:52;-2.60;79.60
68235;DHT22;55052;52.056;5.296;2022-11-20T03:39:19;-2.60;79.70
68235;DHT22;55052;52.056;5.296;2022-11-20T03:41:46;-2.70;79.60
68235;DHT22;55052;52.056;5.296;2022-11-20T03:44:12;-2.70;79.60
68235;DHT22;55052;52.056;5.296;2022-11-20T03:46:39;-2.70;79.60
68235;DHT22;55052;52.056;5.296;2022-11-20T03:49:06;-2.70;79.60
68235;DHT22;55052;52.056;5.296;2022-11-20T03:51:35;-2.70;79.60
68235;DHT22;55052;52.056;5.296;2022-11-20T03:54:04;-2.70;79.70
68235;DHT22;55052;52.056;5.296;2022-11-20T03:56:33;-2.70;79.70
68235;DHT22;55052;52.056;5.296;2022-11-20T03:59:00;-2.70;79.60
68235;DHT22;55052;52.056;5.296;2022-11-20T04:01:33;-2.70;79.50
68235;DHT22;55052;52.056;5.296;2022-11-20T04:04:00;-2.80;79.50
68235;DHT22;55052;52.056;5.296;2022-11-20T04:06:34;-2.80;79.50
68235;DHT22;55052;52.056;5.296;2022-11-20T04:09:00;-2.80;79.40
68235;DHT22;55052;52.056;5.296;2022-11-20T04:11:30;-2.80;79.50
68235;DHT22;55052;52.056;5.296;2022-11-20T04:14:03;-2.80;79.50
68235;DHT22;55052;52.056;5.296;2022-11-20T04:16:32;-2.90;79.40
68235;DHT22;55052;52.056;5.296;2022-11-20T04:19:02;-2.90;79.60
68235;DHT22;55052;52.056;5.296;2022-11-20T04:21:30;-2.90;79.60
68235;DHT22;55052;52.056;5.296;2022-11-20T04:23:57;-2.90;79.60
68235;DHT22;55052;52.056;5.296;2022-11-20T04:26:26;-2.90;79.70
68235;DHT22;55052;52.056;5.296;2022-11-20T04:28:54;-2.90;79.60
68235;DHT22;55052;52.056;5.296;2022-11-20T04:31:23;-3.00;79.50
68235;DHT22;55052;52.056;5.296;2022-11-20T04:33:51;-3.00;79.40
68235;DHT22;55052;52.056;5.296;2022-11-20T04:36:20;-3.00;79.40
68235;DHT22;55052;52.056;5.296;2022-11-20T04:38:54;-3.00;79.40
68235;DHT22;55052;52.056;5.296;2022-11-20T04:41:28;-3.00;79.40
68235;DHT22;55052;52.056;5.296;2022-11-20T04:43:57;-3.10;79.30
68235;DHT22;55052;52.056;5.296;2022-11-20T04:46:27;-3.10;79.30
68235;DHT22;55052;52.056;5.296;2022-11-20T04:48:54;-3.10;79.30
68235;DHT22;55052;52.056;5.296;2022-11-20T04:51:21;-3.10;79.30
68235;DHT22;55052;52.056;5.296;2022-11-20T04:53:48;-3.10;79.20
68235;DHT22;55052;52.056;5.296;2022-11-20T04:56:15;-3.20;79.20
68235;DHT22;55052;52.056;5.296;2022-11-20T04:58:42;-3.20;79.20
68235;DHT22;55052;52.056;5.296;2022-11-20T05:01:23;-3.20;79.30
68235;DHT22;55052;52.056;5.296;2022-11-20T05:03:51;-3.20;79.40
68235;DHT22;55052;52.056;5.296;2022-11-20T05:06:21;-3.20;79.40
68235;DHT22;55052;52.056;5.296;2022-11-20T05:08:48;-3.30;79.30
68235;DHT22;55052;52.056;5.296;2022-11-20T05:11:20;-3.30;79.20
68235;DHT22;55052;52.056;5.296;2022-11-20T05:13:47;-3.30;79.20
68235;DHT22;55052;52.056;5.296;2022-11-20T05:16:22;-3.30;79.30
68235;DHT22;55052;52.056;5.296;2022-11-20T05:18:50;-3.30;79.20
68235;DHT22;55052;52.056;5.296;2022-11-20T05:21:17;-3.30;79.20
68235;DHT22;55052;52.056;5.296;2022-11-20T05:23:45;-3.40;79.10
68235;DHT22;55052;52.056;5.296;2022-11-20T05:26:15;-3.40;79.10
68235;DHT22;55052;52.056;5.296;2022-11-20T05:28:43;-3.40;79.10
68235;DHT22;55052;52.056;5.296;2022-11-20T05:31:15;-3.40;79.10
68235;DHT22;55052;52.056;5.296;2022-11-20T05:33:49;-3.40;79.20
68235;DHT22;55052;52.056;5.296;2022-11-20T05:36:16;-3.40;79.20
68235;DHT22;55052;52.056;5.296;2022-11-20T05:38:43;-3.50;79.20
68235;DHT22;55052;52.056;5.296;2022-11-20T05:41:17;-3.50;79.10
68235;DHT22;55052;52.056;5.296;2022-11-20T05:43:46;-3.50;79.10
68235;DHT22;55052;52.056;5.296;2022-11-20T05:46:14;-3.50;79.10
68235;DHT22;55052;52.056;5.296;2022-11-20T05:48:43;-3.60;79.10
68235;DHT22;55052;52.056;5.296;2022-11-20T05:51:12;-3.60;79.10
68235;DHT22;55052;52.056;5.296;2022-11-20T05:53:39;-3.60;79.90
68235;DHT22;55052;52.056;5.296;2022-11-20T05:56:16;-3.60;79.10
68235;DHT22;55052;52.056;5.296;2022-11-20T05:58:45;-3.60;79.10
68235;DHT22;55052;52.056;5.296;2022-11-20T06:01:20;-3.60;79.20
68235;DHT22;55052;52.056;5.296;2022-11-20T06:03:48;-3.70;79.00
68235;DHT22;55052;52.056;5.296;2022-11-20T06:06:18;-3.70;79.10
68235;DHT22;55052;52.056;5.296;2022-11-20T06:08:45;-3.70;79.10
68235;DHT22;55052;52.056;5.296;2022-11-20T06:11:13;-3.70;79.20
68235;DHT22;55052;52.056;5.296;2022-11-20T06:13:40;-3.70;79.30
68235;DHT22;55052;52.056;5.296;2022-11-20T06:16:09;-3.70;79.40
68235;DHT22;55052;52.056;5.296;2022-11-20T06:18:36;-3.70;79.40
68235;DHT22;55052;52.056;5.296;2022-11-20T06:21:06;-3.70;79.50
68235;DHT22;55052;52.056;5.296;2022-11-20T06:23:34;-3.70;79.50
68235;DHT22;55052;52.056;5.296;2022-11-20T06:26:02;-3.70;79.60
68235;DHT22;55052;52.056;5.296;2022-11-20T06:28:29;-3.70;79.60
68235;DHT22;55052;52.056;5.296;2022-11-20T06:30:57;-3.70;79.60
68235;DHT22;55052;52.056;5.296;2022-11-20T06:33:24;-3.70;79.60
68235;DHT22;55052;52.056;5.296;2022-11-20T06:35:51;-3.70;79.60
68235;DHT22;55052;52.056;5.296;2022-11-20T06:38:26;-3.70;79.60
68235;DHT22;55052;52.056;5.296;2022-11-20T06:40:53;-3.70;79.70
68235;DHT22;55052;52.056;5.296;2022-11-20T06:43:20;-3.60;79.70
68235;DHT22;55052;52.056;5.296;2022-11-20T06:45:55;-3.60;79.80
68235;DHT22;55052;52.056;5.296;2022-11-20T06:48:23;-3.60;79.80
68235;DHT22;55052;52.056;5.296;2022-11-20T06:50:50;-3.60;79.70
68235;DHT22;55052;52.056;5.296;2022-11-20T06:53:17;-3.60;79.70
68235;DHT22;55052;52.056;5.296;2022-11-20T06:55:46;-3.60;79.50
68235;DHT22;55052;52.056;5.296;2022-11-20T06:58:15;-3.70;79.50
68235;DHT22;55052;52.056;5.296;2022-11-20T07:00:42;-3.60;79.60
68235;DHT22;55052;52.056;5.296;2022-11-20T07:03:10;-3.70;79.50
68235;DHT22;55052;52.056;5.296;2022-11-20T07:05:37;-3.60;79.50
68235;DHT22;55052;52.056;5.296;2022-11-20T07:08:05;-3.60;79.60
68235;DHT22;55052;52.056;5.296;2022-11-20T07:10:32;-3.60;79.70
68235;DHT22;55052;52.056;5.296;2022-11-20T07:12:59;-3.60;79.60
68235;DHT22;55052;52.056;5.296;2022-11-20T07:15:26;-3.60;79.60
68235;DHT22;55052;52.056;5.296;2022-11-20T07:17:53;-3.60;79.60
68235;DHT22;55052;52.056;5.296;2022-11-20T07:20:19;-3.60;79.50
68235;DHT22;55052;52.056;5.296;2022-11-20T07:22:46;-3.60;79.60
68235;DHT22;55052;52.056;5.296;2022-11-20T07:25:13;-3.60;79.50
68235;DHT22;55052;52.056;5.296;2022-11-20T07:27:40;-3.60;79.60
68235;DHT22;55052;52.056;5.296;2022-11-20T07:30:07;-3.60;79.70
68235;DHT22;55052;52.056;5.296;2022-11-20T07:32:33;-3.60;79.70
68235;DHT22;55052;52.056;5.296;2022-11-20T07:35:00;-3.60;79.70
68235;DHT22;55052;52.056;5.296;2022-11-20T07:37:27;-3.60;79.80
68235;DHT22;55052;52.056;5.296;2022-11-20T07:39:53;-3.50;79.90
68235;DHT22;55052;52.056;5.296;2022-11-20T07:42:20;-3.50;80.00
68235;DHT22;55052;52.056;5.296;2022-11-20T07:44:47;-3.50;80.10
68235;DHT22;55052;52.056;5.296;2022-11-20T07:47:14;-3.50;80.90
68235;DHT22;55052;52.056;5.296;2022-11-20T07:49:40;-3.40;80.20
68235;DHT22;55052;52.056;5.296;2022-11-20T07:52:07;-3.40;80.20
68235;DHT22;55052;52.056;5.296;2022-11-20T07:54:34;-3.40;80.30
68235;DHT22;55052;52.056;5.296;2022-11-20T07:57:00;-3.30;80.40
68235;DHT22;55052;52.056;5.296;2022-11-20T07:59:27;-3.30;80.40
68235;DHT22;55052;52.056;5.296;2022-11-20T08:01:54;-3.20;80.50
68235;DHT22;55052;52.056;5.296;2022-11-20T08:04:21;-3.20;80.60
68235;DHT22;55052;52.056;5.296;2022-11-20T08:06:51;-3.10;80.70
68235;DHT22;55052;52.056;5.296;2022-11-20T08:09:18;-3.10;80.90
68235;DHT22;55052;52.056;5.296;2022-11-20T08:11:45;-3.00;81.80
68235;DHT22;55052;52.056;5.296;2022-11-20T08:14:30;-2.90;81.20
68235;DHT22;55052;52.056;5.296;2022-11-20T08:16:57;-2.90;81.40
68235;DHT22;55052;52.056;5.296;2022-11-20T08:19:24;-2.80;81.60
68235;DHT22;55052;52.056;5.296;2022-11-20T08:21:50;-2.70;81.70
68235;DHT22;55052;52.056;5.296;2022-11-20T08:24:17;-2.60;81.90
68235;DHT22;55052;52.056;5.296;2022-11-20T08:26:44;-2.50;81.90
68235;DHT22;55052;52.056;5.296;2022-11-20T08:29:11;-2.50;82.20
68235;DHT22;55052;52.056;5.296;2022-11-20T08:31:38;-2.30;82.40
68235;DHT22;55052;52.056;5.296;2022-11-20T08:34:04;-2.20;82.60
68235;DHT22;55052;52.056;5.296;2022-11-20T08:36:35;-2.10;82.70
68235;DHT22;55052;52.056;5.296;2022-11-20T08:39:02;-2.00;83.30
68235;DHT22;55052;52.056;5.296;2022-11-20T08:41:30;-2.00;83.40
68235;DHT22;55052;52.056;5.296;2022-11-20T08:44:01;-1.90;83.80
68235;DHT22;55052;52.056;5.296;2022-11-20T08:46:33;-1.70;83.60
68235;DHT22;55052;52.056;5.296;2022-11-20T08:49:00;-1.60;83.90
68235;DHT22;55052;52.056;5.296;2022-11-20T08:51:27;-1.60;83.80
68235;DHT22;55052;52.056;5.296;2022-11-20T08:53:54;-1.40;83.90
68235;DHT22;55052;52.056;5.296;2022-11-20T08:56:20;-1.40;83.90
68235;DHT22;55052;52.056;5.296;2022-11-20T08:58:47;-1.20;84.00
68235;DHT22;55052;52.056;5.296;2022-11-20T09:01:34;-1.20;84.10
68235;DHT22;55052;52.056;5.296;2022-11-20T09:04:01;-1.10;84.20
68235;DHT22;55052;52.056;5.296;2022-11-20T09:06:30;-0.90;84.40
68235;DHT22;55052;52.056;5.296;2022-11-20T09:08:56;-0.90;84.30
68235;DHT22;55052;52.056;5.296;2022-11-20T09:11:30;-0.80;84.40
68235;DHT22;55052;52.056;5.296;2022-11-20T09:13:57;-0.70;84.30
68235;DHT22;55052;52.056;5.296;2022-11-20T09:16:24;-0.60;84.40
68235;DHT22;55052;52.056;5.296;2022-11-20T09:18:50;-0.50;84.40
68235;DHT22;55052;52.056;5.296;2022-11-20T09:21:37;-0.40;84.50
68235;DHT22;55052;52.056;5.296;2022-11-20T09:24:04;-0.40;85.20
68235;DHT22;55052;52.056;5.296;2022-11-20T09:26:31;-0.30;84.40
68235;DHT22;55052;52.056;5.296;2022-11-20T09:28:58;-0.20;84.50
68235;DHT22;55052;52.056;5.296;2022-11-20T09:31:25;-0.10;84.50
68235;DHT22;55052;52.056;5.296;2022-11-20T09:33:55;-0.10;84.50
68235;DHT22;55052;52.056;5.296;2022-11-20T09:36:22;0.00;84.50
68235;DHT22;55052;52.056;5.296;2022-11-20T09:38:48;0.10;84.60
68235;DHT22;55052;52.056;5.296;2022-11-20T09:44:23;0.20;84.60
68235;DHT22;55052;52.056;5.296;2022-11-20T09:47:03;0.30;84.60
68235;DHT22;55052;52.056;5.296;2022-11-20T09:55:13;0.50;84.70
68235;DHT22;55052;52.056;5.296;2022-11-20T09:57:44;0.60;84.80
68235;DHT22;55052;52.056;5.296;2022-11-20T10:00:13;0.60;84.70
68235;DHT22;55052;52.056;5.296;2022-11-20T10:02:42;0.70;84.80
68235;DHT22;55052;52.056;5.296;2022-11-20T10:05:21;0.70;84.80
68235;DHT22;55052;52.056;5.296;2022-11-20T10:07:58;0.80;84.70
68235;DHT22;55052;52.056;5.296;2022-11-20T10:10:38;0.90;84.80
68235;DHT22;55052;52.056;5.296;2022-11-20T10:13:39;0.90;84.80
68235;DHT22;55052;52.056;5.296;2022-11-20T10:19:10;1.10;84.70
68235;DHT22;55052;52.056;5.296;2022-11-20T10:27:05;1.30;84.70
68235;DHT22;55052;52.056;5.296;2022-11-20T10:29:36;1.30;84.60
68235;DHT22;55052;52.056;5.296;2022-11-20T10:32:10;1.40;84.60
68235;DHT22;55052;52.056;5.296;2022-11-20T10:34:49;1.40;84.50
68235;DHT22;55052;52.056;5.296;2022-11-20T10:37:25;1.50;84.50
68235;DHT22;55052;52.056;5.296;2022-11-20T10:48:12;1.70;84.60
68235;DHT22;55052;52.056;5.296;2022-11-20T10:56:33;1.90;85.50
68235;DHT22;55052;52.056;5.296;2022-11-20T10:59:11;2.00;84.80
68235;DHT22;55052;52.056;5.296;2022-11-20T11:01:46;2.00;84.70
68235;DHT22;55052;52.056;5.296;2022-11-20T11:04:40;2.10;84.80
68235;DHT22;55052;52.056;5.296;2022-11-20T11:07:16;2.20;84.90
68235;DHT22;55052;52.056;5.296;2022-11-20T11:09:49;2.20;84.90
68235;DHT22;55052;52.056;5.296;2022-11-20T11:12:16;2.30;84.90
68235;DHT22;55052;52.056;5.296;2022-11-20T11:14:48;2.30;85.10
68235;DHT22;55052;52.056;5.296;2022-11-20T11:17:24;2.40;84.90
68235;DHT22;55052;52.056;5.296;2022-11-20T11:20:15;2.50;85.00
68235;DHT22;55052;52.056;5.296;2022-11-20T11:22:48;2.50;84.90
68235;DHT22;55052;52.056;5.296;2022-11-20T11:25:56;2.50;84.80
68235;DHT22;55052;52.056;5.296;2022-11-20T11:28:24;2.60;84.80
68235;DHT22;55052;52.056;5.296;2022-11-20T11:30:52;2.60;84.80
68235;DHT22;55052;52.056;5.296;2022-11-20T11:33:30;2.70;84.70
68235;DHT22;55052;52.056;5.296;2022-11-20T11:36:03;2.70;84.70
68235;DHT22;55052;52.056;5.296;2022-11-20T11:38:35;2.70;84.70
68235;DHT22;55052;52.056;5.296;2022-11-20T11:41:03;2.80;84.80
68235;DHT22;55052;52.056;5.296;2022-11-20T11:43:35;2.80;84.70
68235;DHT22;55052;52.056;5.296;2022-11-20T11:46:25;2.80;84.80
68235;DHT22;55052;52.056;5.296;2022-11-20T11:51:36;2.90;84.90
68235;DHT22;55052;52.056;5.296;2022-11-20T11:54:27;2.90;85.10
68235;DHT22;55052;52.056;5.296;2022-11-20T11:57:01;3.00;85.10
68235;DHT22;55052;52.056;5.296;2022-11-20T12:00:15;2.90;85.30
68235;DHT22;55052;52.056;5.296;2022-11-20T12:05:24;3.00;85.40
68235;DHT22;55052;52.056;5.296;2022-11-20T12:10:44;3.10;85.80
68235;DHT22;55052;52.056;5.296;2022-11-20T12:13:32;3.10;86.00
68235;DHT22;55052;52.056;5.296;2022-11-20T12:16:02;3.20;86.10
68235;DHT22;55052;52.056;5.296;2022-11-20T12:18:30;3.20;86.20
68235;DHT22;55052;52.056;5.296;2022-11-20T12:36:56;3.40;86.70
68235;DHT22;55052;52.056;5.296;2022-11-20T12:47:59;3.50;86.90
68235;DHT22;55052;52.056;5.296;2022-11-20T13:05:19;3.60;87.30
68235;DHT22;55052;52.056;5.296;2022-11-20T13:07:49;3.60;87.10
68235;DHT22;55052;52.056;5.296;2022-11-20T13:13:16;3.70;87.30
68235;DHT22;55052;52.056;5.296;2022-11-20T13:15:47;3.70;87.20
68235;DHT22;55052;52.056;5.296;2022-11-20T13:18:17;3.70;87.40
68235;DHT22;55052;52.056;5.296;2022-11-20T13:20:45;3.70;87.30
68235;DHT22;55052;52.056;5.296;2022-11-20T13:23:23;3.70;87.30
68235;DHT22;55052;52.056;5.296;2022-11-20T13:26:01;3.80;87.30
68235;DHT22;55052;52.056;5.296;2022-11-20T13:28:29;3.80;87.30
68235;DHT22;55052;52.056;5.296;2022-11-20T13:30:57;3.80;87.40
68235;DHT22;55052;52.056;5.296;2022-11-20T13:33:35;3.80;87.30
68235;DHT22;55052;52.056;5.296;2022-11-20T13:36:04;3.80;87.40
68235;DHT22;55052;52.056;5.296;2022-11-20T13:38:47;3.80;87.40
68235;DHT22;55052;52.056;5.296;2022-11-20T13:41:26;3.80;87.40
68235;DHT22;55052;52.056;5.296;2022-11-20T13:46:52;3.80;87.40
68235;DHT22;55052;52.056;5.296;2022-11-20T13:49:32;3.90;87.40
68235;DHT22;55052;52.056;5.296;2022-11-20T13:54:52;3.90;87.50
68235;DHT22;55052;52.056;5.296;2022-11-20T13:57:42;3.80;87.50
68235;DHT22;55052;52.056;5.296;2022-11-20T14:00:25;3.80;87.60
68235;DHT22;55052;52.056;5.296;2022-11-20T14:03:15;3.80;87.60
68235;DHT22;55052;52.056;5.296;2022-11-20T14:05:54;3.90;87.70
68235;DHT22;55052;52.056;5.296;2022-11-20T14:08:45;3.80;87.70
68235;DHT22;55052;52.056;5.296;2022-11-20T14:11:16;3.90;87.90
68235;DHT22;55052;52.056;5.296;2022-11-20T14:16:29;3.90;88.20
68235;DHT22;55052;52.056;5.296;2022-11-20T14:19:00;3.80;88.20
68235;DHT22;55052;52.056;5.296;2022-11-20T14:21:43;3.90;88.20
68235;DHT22;55052;52.056;5.296;2022-11-20T14:24:11;3.90;88.30
68235;DHT22;55052;52.056;5.296;2022-11-20T14:26:43;3.90;88.30
68235;DHT22;55052;52.056;5.296;2022-11-20T14:29:18;3.90;88.50
68235;DHT22;55052;52.056;5.296;2022-11-20T14:31:47;3.90;88.50
68235;DHT22;55052;52.056;5.296;2022-11-20T14:34:31;4.00;88.60
68235;DHT22;55052;52.056;5.296;2022-11-20T14:37:01;4.00;88.60
68235;DHT22;55052;52.056;5.296;2022-11-20T14:39:34;4.00;88.60
68235;DHT22;55052;52.056;5.296;2022-11-20T14:42:03;4.00;88.60
68235;DHT22;55052;52.056;5.296;2022-11-20T14:44:33;4.00;88.60
68235;DHT22;55052;52.056;5.296;2022-11-20T14:47:00;4.10;88.60
68235;DHT22;55052;52.056;5.296;2022-11-20T14:49:30;4.10;88.60
68235;DHT22;55052;52.056;5.296;2022-11-20T14:51:59;4.10;88.60
68235;DHT22;55052;52.056;5.296;2022-11-20T14:54:26;4.00;88.60
68235;DHT22;55052;52.056;5.296;2022-11-20T14:56:56;4.00;88.60
68235;DHT22;55052;52.056;5.296;2022-11-20T14:59:24;4.10;88.60
68235;DHT22;55052;52.056;5.296;2022-11-20T15:02:01;4.00;88.60
68235;DHT22;55052;52.056;5.296;2022-11-20T15:04:29;4.00;88.70
68235;DHT22;55052;52.056;5.296;2022-11-20T15:06:59;4.00;88.70
68235;DHT22;55052;52.056;5.296;2022-11-20T15:09:26;4.00;88.70
68235;DHT22;55052;52.056;5.296;2022-11-20T15:12:01;4.00;88.70
68235;DHT22;55052;52.056;5.296;2022-11-20T15:14:30;4.00;88.80
68235;DHT22;55052;52.056;5.296;2022-11-20T15:16:57;4.10;88.90
68235;DHT22;55052;52.056;5.296;2022-11-20T15:19:25;4.00;88.90
68235;DHT22;55052;52.056;5.296;2022-11-20T15:21:53;4.00;88.90
68235;DHT22;55052;52.056;5.296;2022-11-20T15:24:19;4.00;89.00
68235;DHT22;55052;52.056;5.296;2022-11-20T15:26:48;4.00;89.00
68235;DHT22;55052;52.056;5.296;2022-11-20T15:29:16;4.00;89.00
68235;DHT22;55052;52.056;5.296;2022-11-20T15:31:47;4.00;89.10
68235;DHT22;55052;52.056;5.296;2022-11-20T15:34:15;4.00;89.10
68235;DHT22;55052;52.056;5.296;2022-11-20T15:36:43;4.00;89.20
68235;DHT22;55052;52.056;5.296;2022-11-20T15:39:10;4.00;89.60
68235;DHT22;55052;52.056;5.296;2022-11-20T15:41:38;4.00;89.20
68235;DHT22;55052;52.056;5.296;2022-11-20T15:44:05;4.00;89.20
68235;DHT22;55052;52.056;5.296;2022-11-20T15:46:36;4.00;89.40
68235;DHT22;55052;52.056;5.296;2022-11-20T15:49:12;4.00;89.50
68235;DHT22;55052;52.056;5.296;2022-11-20T15:51:43;4.00;89.50
68235;DHT22;55052;52.056;5.296;2022-11-20T15:54:20;4.00;89.60
68235;DHT22;55052;52.056;5.296;2022-11-20T15:56:49;4.00;89.60
68235;DHT22;55052;52.056;5.296;2022-11-20T15:59:18;4.10;89.70
68235;DHT22;55052;52.056;5.296;2022-11-20T16:01:45;4.10;89.80
68235;DHT22;55052;52.056;5.296;2022-11-20T16:04:14;4.10;89.90
68235;DHT22;55052;52.056;5.296;2022-11-20T16:06:41;4.10;89.90
68235;DHT22;55052;52.056;5.296;2022-11-20T16:09:08;4.10;90.00
68235;DHT22;55052;52.056;5.296;2022-11-20T16:11:36;4.10;90.00
68235;DHT22;55052;52.056;5.296;2022-11-20T16:14:03;4.10;90.00
68235;DHT22;55052;52.056;5.296;2022-11-20T16:16:49;4.10;90.00
68235;DHT22;55052;52.056;5.296;2022-11-20T16:19:15;4.10;90.00
68235;DHT22;55052;52.056;5.296;2022-11-20T16:21:44;4.10;90.00
68235;DHT22;55052;52.056;5.296;2022-11-20T16:24:13;4.10;90.00
68235;DHT22;55052;52.056;5.296;2022-11-20T16:26:40;4.20;90.10
68235;DHT22;55052;52.056;5.296;2022-11-20T16:29:07;4.20;90.10
68235;DHT22;55052;52.056;5.296;2022-11-20T16:31:34;4.20;90.10
68235;DHT22;55052;52.056;5.296;2022-11-20T16:34:04;4.20;90.10
68235;DHT22;55052;52.056;5.296;2022-11-20T16:36:41;4.20;90.20
68235;DHT22;55052;52.056;5.296;2022-11-20T16:39:09;4.20;90.20
68235;DHT22;55052;52.056;5.296;2022-11-20T16:41:35;4.20;90.20
68235;DHT22;55052;52.056;5.296;2022-11-20T16:44:07;4.20;90.20
68235;DHT22;55052;52.056;5.296;2022-11-20T16:46:34;4.20;90.20
68235;DHT22;55052;52.056;5.296;2022-11-20T16:49:12;4.20;90.30
68235;DHT22;55052;52.056;5.296;2022-11-20T16:51:39;4.30;90.30
68235;DHT22;55052;52.056;5.296;2022-11-20T16:54:08;4.30;90.30
68235;DHT22;55052;52.056;5.296;2022-11-20T16:56:35;4.30;90.30
68235;DHT22;55052;52.056;5.296;2022-11-20T16:59:02;4.30;90.40
68235;DHT22;55052;52.056;5.296;2022-11-20T17:01:30;4.30;90.40
68235;DHT22;55052;52.056;5.296;2022-11-20T17:04:02;4.40;90.50
68235;DHT22;55052;52.056;5.296;2022-11-20T17:06:37;4.40;90.50
68235;DHT22;55052;52.056;5.296;2022-11-20T17:09:06;4.40;90.50
68235;DHT22;55052;52.056;5.296;2022-11-20T17:11:36;4.40;90.50
68235;DHT22;55052;52.056;5.296;2022-11-20T17:14:03;4.50;90.60
68235;DHT22;55052;52.056;5.296;2022-11-20T17:16:34;4.50;90.60
68235;DHT22;55052;52.056;5.296;2022-11-20T17:19:01;4.50;90.60
68235;DHT22;55052;52.056;5.296;2022-11-20T17:21:31;4.50;90.60
68235;DHT22;55052;52.056;5.296;2022-11-20T17:24:02;4.50;90.60
68235;DHT22;55052;52.056;5.296;2022-11-20T17:26:29;4.60;90.70
68235;DHT22;55052;52.056;5.296;2022-11-20T17:29:20;4.60;90.70
68235;DHT22;55052;52.056;5.296;2022-11-20T17:31:49;4.60;90.70
68235;DHT22;55052;52.056;5.296;2022-11-20T17:34:16;4.60;90.70